sensor_id;sensor_type;location;lat;lon;timestamp;temperature;humidity
30381;DHT22;17169;50.966;11.038;2023-03-02T00:01:56;-0.30;99.90
30381;DHT22;17169;50.966;11.038;2023-03-02T00:05:01;-0.30;99.90
30381;DHT22;17169;50.966;11.038;2023-03-02T00:08:05;-0.30;99.90
30381;DHT22;17169;50.966;11.038;2023-03-02T00:11:08;-0.30;99.90
30381;DHT22;17169;50.966;11.038;2023-03-02T00:14:11;-0.30;99.90
30381;DHT22;17169;50.966;11.038;2023-03-02T00:17:13;-0.30;99.90
30381;DHT22;17169;50.966;11.038;2023-03-02T00:20:16;-0.30;99.90
30381;DHT22;17169;50.966;11.038;2023-03-02T00:23:19;-0.30;99.90
30381;DHT22;17169;50.966;11.038;2023-03-02T00:26:22;-0.30;99.90
30381;DHT22;17169;50.966;11.038;2023-03-02T00:29:24;-0.30;99.90
30381;DHT22;17169;50.966;11.038;2023-03-02T00:32:27;-0.40;99.90
30381;DHT22;17169;50.966;11.038;2023-03-02T00:35:29;-0.40;99.90
30381;DHT22;17169;50.966;11.038;2023-03-02T00:38:33;-0.60;99.90
30381;DHT22;17169;50.966;11.038;2023-03-02T00:41:35;-0.50;99.90
30381;DHT22;17169;50.966;11.038;2023-03-02T00:44:38;-0.60;99.90
30381;DHT22;17169;50.966;11.038;2023-03-02T00:47:40;-0.60;99.90
30381;DHT22;17169;50.966;11.038;2023-03-02T00:50:42;-0.60;99.90
30381;DHT22;17169;50.966;11.038;2023-03-02T00:53:46;-0.60;99.90
30381;DHT22;17169;50.966;11.038;2023-03-02T00:56:48;-0.60;99.90
30381;DHT22;17169;50.966;11.038;2023-03-02T00:59:51;-0.60;99.90
30381;DHT22;17169;50.966;11.038;2023-03-02T01:02:53;-0.60;99.90
30381;DHT22;17169;50.966;11.038;2023-03-02T01:05:56;-0.60;99.90
30381;DHT22;17169;50.966;11.038;2023-03-02T01:09:00;-0.60;99.90
30381;DHT22;17169;50.966;11.038;2023-03-02T01:12:02;-0.70;99.90
30381;DHT22;17169;50.966;11.038;2023-03-02T01:15:07;-0.80;99.90
30381;DHT22;17169;50.966;11.038;2023-03-02T01:18:09;-0.90;99.90
30381;DHT22;17169;50.966;11.038;2023-03-02T01:21:14;-0.90;99.90
30381;DHT22;17169;50.966;11.038;2023-03-02T01:24:18;-1.00;99.90
30381;DHT22;17169;50.966;11.038;2023-03-02T01:27:20;-1.00;99.90
30381;DHT22;17169;50.966;11.038;2023-03-02T01:30:23;-1.00;99.90
30381;DHT22;17169;50.966;11.038;2023-03-02T01:33:25;-1.00;99.90
30381;DHT22;17169;50.966;11.038;2023-03-02T01:36:27;-1.00;99.90
30381;DHT22;17169;50.966;11.038;2023-03-02T01:39:31;-1.00;99.90
30381;DHT22;17169;50.966;11.038;2023-03-02T01:42:37;-1.00;99.90
30381;DHT22;17169;50.966;11.038;2023-03-02T01:45:47;-1.00;99.90
30381;DHT22;17169;50.966;11.038;2023-03-02T01:48:55;-1.00;99.90
30381;DHT22;17169;50.966;11.038;2023-03-02T01:51:59;-1.00;99.90
30381;DHT22;17169;50.966;11.038;2023-03-02T01:55:05;-1.10;99.90
30381;DHT22;17169;50.966;11.038;2023-03-02T01:58:08;-1.10;99.90
30381;DHT22;17169;50.966;11.038;2023-03-02T02:01:11;-1.10;99.90
30381;DHT22;17169;50.966;11.038;2023-03-02T02:04:16;-1.20;99.90
30381;DHT22;17169;50.966;11.038;2023-03-02T02:07:19;-1.20;99.90
30381;DHT22;17169;50.966;11.038;2023-03-02T02:10:23;-1.30;99.90
30381;DHT22;17169;50.966;11.038;2023-03-02T02:13:25;-1.30;99.90
30381;DHT22;17169;50.966;11.038;2023-03-02T02:16:29;-1.20;99.90
30381;DHT22;17169;50.966;11.038;2023-03-02T02:19:50;-1.30;99.90
30381;DHT22;17169;50.966;11.038;2023-03-02T02:23:04;-1.20;99.90
30381;DHT22;17169;50.966;11.038;2023-03-02T02:26:14;-1.30;99.90
30381;DHT22;17169;50.966;11.038;2023-03-02T02:29:20;-1.40;99.90
30381;DHT22;17169;50.966;11.038;2023-03-02T02:32:26;-1.40;99.90
30381;DHT22;17169;50.966;11.038;2023-03-02T02:35:31;-1.40;99.90
30381;DHT22;17169;50.966;11.038;2023-03-02T02:38:37;-1.50;99.90
30381;DHT22;17169;50.966;11.038;2023-03-02T02:41:42;-1.60;99.90
30381;DHT22;17169;50.966;11.038;2023-03-02T02:44:47;-1.70;99.90
30381;DHT22;17169;50.966;11.038;2023-03-02T02:47:50;-1.70;99.90
30381;DHT22;17169;50.966;11.038;2023-03-02T02:50:53;-1.70;99.90
30381;DHT22;17169;50.966;11.038;2023-03-02T02:54:01;-1.70;99.90
30381;DHT22;17169;50.966;11.038;2023-03-02T02:57:06;-1.60;99.90
30381;DHT22;17169;50.966;11.038;2023-03-02T03:00:16;-1.60;99.90
30381;DHT22;17169;50.966;11.038;2023-03-02T03:03:26;-1.60;99.90
30381;DHT22;17169;50.966;11.038;2023-03-02T03:06:33;-1.50;99.90
30381;DHT22;17169;50.966;11.038;2023-03-02T03:09:38;-1.50;99.90
30381;DHT22;17169;50.966;11.038;2023-03-02T03:12:42;-1.60;99.90
30381;DHT22;17169;50.966;11.038;2023-03-02T03:15:45;-1.60;99.90
30381;DHT22;17169;50.966;11.038;2023-03-02T03:18:49;-1.70;99.90
30381;DHT22;17169;50.966;11.038;2023-03-02T03:21:54;-1.70;99.90
30381;DHT22;17169;50.966;11.038;2023-03-02T03:24:57;-1.70;99.90
30381;DHT22;17169;50.966;11.038;2023-03-02T03:28:01;-1.70;99.90
30381;DHT22;17169;50.966;11.038;2023-03-02T03:31:04;-1.70;99.90
30381;DHT22;17169;50.966;11.038;2023-03-02T03:34:07;-1.80;99.90
30381;DHT22;17169;50.966;11.038;2023-03-02T03:37:11;-1.90;99.90
30381;DHT22;17169;50.966;11.038;2023-03-02T03:40:14;-1.90;99.90
30381;DHT22;17169;50.966;11.038;2023-03-02T03:43:18;-2.00;99.90
30381;DHT22;17169;50.966;11.038;2023-03-02T03:46:21;-2.10;99.90
30381;DHT22;17169;50.966;11.038;2023-03-02T03:49:23;-2.10;99.90
30381;DHT22;17169;50.966;11.038;2023-03-02T03:52:26;-2.10;99.90
30381;DHT22;17169;50.966;11.038;2023-03-02T03:55:31;-2.10;99.90
30381;DHT22;17169;50.966;11.038;2023-03-02T03:58:35;-2.10;99.90
30381;DHT22;17169;50.966;11.038;2023-03-02T04:01:39;-2.10;99.90
30381;DHT22;17169;50.966;11.038;2023-03-02T04:04:42;-2.10;99.90
30381;DHT22;17169;50.966;11.038;2023-03-02T04:07:45;-2.00;99.90
30381;DHT22;17169;50.966;11.038;2023-03-02T04:10:47;-2.10;99.90
30381;DHT22;17169;50.966;11.038;2023-03-02T04:13:51;-2.10;99.90
30381;DHT22;17169;50.966;11.038;2023-03-02T04:16:53;-2.10;99.90
30381;DHT22;17169;50.966;11.038;2023-03-02T04:19:56;-2.10;99.90
30381;DHT22;17169;50.966;11.038;2023-03-02T04:22:59;-2.10;99.90
30381;DHT22;17169;50.966;11.038;2023-03-02T04:26:01;-2.10;99.90
30381;DHT22;17169;50.966;11.038;2023-03-02T04:29:06;-2.10;99.90
30381;DHT22;17169;50.966;11.038;2023-03-02T04:32:09;-2.20;99.90
30381;DHT22;17169;50.966;11.038;2023-03-02T04:35:12;-2.30;99.90
30381;DHT22;17169;50.966;11.038;2023-03-02T04:38:14;-2.40;99.90
30381;DHT22;17169;50.966;11.038;2023-03-02T04:41:17;-2.40;99.90
30381;DHT22;17169;50.966;11.038;2023-03-02T04:44:21;-2.40;99.90
30381;DHT22;17169;50.966;11.038;2023-03-02T04:47:23;-2.50;99.90
30381;DHT22;17169;50.966;11.038;2023-03-02T04:50:26;-2.50;99.90
30381;DHT22;17169;50.966;11.038;2023-03-02T04:53:28;-2.50;99.90
30381;DHT22;17169;50.966;11.038;2023-03-02T04:56:31;-2.60;99.90
30381;DHT22;17169;50.966;11.038;2023-03-02T04:59:34;-2.50;99.90
30381;DHT22;17169;50.966;11.038;2023-03-02T05:02:37;-2.60;99.90
30381;DHT22;17169;50.966;11.038;2023-03-02T05:05:39;-2.60;99.90
30381;DHT22;17169;50.966;11.038;2023-03-02T05:08:42;-2.60;99.90
30381;DHT22;17169;50.966;11.038;2023-03-02T05:11:44;-2.60;99.90
30381;DHT22;17169;50.966;11.038;2023-03-02T05:14:48;-2.60;99.90
30381;DHT22;17169;50.966;11.038;2023-03-02T05:17:51;-2.50;99.90
30381;DHT22;17169;50.966;11.038;2023-03-02T05:20:54;-2.50;99.90
30381;DHT22;17169;50.966;11.038;2023-03-02T05:23:57;-2.50;99.90
30381;DHT22;17169;50.966;11.038;2023-03-02T05:26:59;-2.40;99.90
30381;DHT22;17169;50.966;11.038;2023-03-02T05:30:04;-2.50;99.90
30381;DHT22;17169;50.966;11.038;2023-03-02T05:33:06;-2.40;99.90
30381;DHT22;17169;50.966;11.038;2023-03-02T05:36:09;-2.50;99.90
30381;DHT22;17169;50.966;11.038;2023-03-02T05:39:12;-2.50;99.90
30381;DHT22;17169;50.966;11.038;2023-03-02T05:42:14;-2.50;99.90
30381;DHT22;17169;50.966;11.038;2023-03-02T05:45:20;-2.60;99.90
30381;DHT22;17169;50.966;11.038;2023-03-02T05:48:23;-2.60;99.90
30381;DHT22;17169;50.966;11.038;2023-03-02T05:51:26;-2.70;99.90
30381;DHT22;17169;50.966;11.038;2023-03-02T05:54:29;-2.70;99.90
30381;DHT22;17169;50.966;11.038;2023-03-02T05:57:31;-2.70;99.90
30381;DHT22;17169;50.966;11.038;2023-03-02T06:00:35;-2.70;99.90
30381;DHT22;17169;50.966;11.038;2023-03-02T06:03:38;-2.70;99.90
30381;DHT22;17169;50.966;11.038;2023-03-02T06:06:40;-2.70;99.90
30381;DHT22;17169;50.966;11.038;2023-03-02T06:09:42;-2.80;99.90
30381;DHT22;17169;50.966;11.038;2023-03-02T06:12:45;-2.90;99.90
30381;DHT22;17169;50.966;11.038;2023-03-02T06:15:48;-2.90;99.90
30381;DHT22;17169;50.966;11.038;2023-03-02T06:18:51;-2.90;99.90
30381;DHT22;17169;50.966;11.038;2023-03-02T06:21:53;-3.00;99.90
30381;DHT22;17169;50.966;11.038;2023-03-02T06:24:56;-3.00;99.90
30381;DHT22;17169;50.966;11.038;2023-03-02T06:27:58;-3.00;99.90
30381;DHT22;17169;50.966;11.038;2023-03-02T06:31:02;-3.00;99.90
30381;DHT22;17169;50.966;11.038;2023-03-02T06:34:04;-3.00;99.90
30381;DHT22;17169;50.966;11.038;2023-03-02T06:37:06;-2.90;99.90
30381;DHT22;17169;50.966;11.038;2023-03-02T06:40:10;-2.90;99.90
30381;DHT22;17169;50.966;11.038;2023-03-02T06:43:13;-2.90;99.90
30381;DHT22;17169;50.966;11.038;2023-03-02T06:46:17;-2.90;99.90
30381;DHT22;17169;50.966;11.038;2023-03-02T06:49:19;-2.90;99.90
30381;DHT22;17169;50.966;11.038;2023-03-02T06:52:22;-2.90;99.90
30381;DHT22;17169;50.966;11.038;2023-03-02T06:55:24;-2.80;99.90
30381;DHT22;17169;50.966;11.038;2023-03-02T06:58:27;-2.70;99.90
30381;DHT22;17169;50.966;11.038;2023-03-02T07:01:30;-2.60;99.90
30381;DHT22;17169;50.966;11.038;2023-03-02T07:04:35;-2.50;99.90
30381;DHT22;17169;50.966;11.038;2023-03-02T07:07:38;-2.50;99.90
30381;DHT22;17169;50.966;11.038;2023-03-02T07:10:40;-2.40;99.90
30381;DHT22;17169;50.966;11.038;2023-03-02T07:13:42;-2.40;99.90
30381;DHT22;17169;50.966;11.038;2023-03-02T07:16:46;-2.30;99.90
30381;DHT22;17169;50.966;11.038;2023-03-02T07:19:49;-2.20;99.90
30381;DHT22;17169;50.966;11.038;2023-03-02T07:22:51;-2.20;99.90
30381;DHT22;17169;50.966;11.038;2023-03-02T07:25:54;-2.10;99.90
30381;DHT22;17169;50.966;11.038;2023-03-02T07:28:57;-2.10;99.90
30381;DHT22;17169;50.966;11.038;2023-03-02T07:32:01;-1.90;99.90
30381;DHT22;17169;50.966;11.038;2023-03-02T07:35:04;-1.90;99.90
30381;DHT22;17169;50.966;11.038;2023-03-02T07:38:07;-1.80;99.90
30381;DHT22;17169;50.966;11.038;2023-03-02T07:41:09;-1.60;99.90
30381;DHT22;17169;50.966;11.038;2023-03-02T07:44:12;-1.50;99.90
30381;DHT22;17169;50.966;11.038;2023-03-02T07:47:16;-1.40;99.90
30381;DHT22;17169;50.966;11.038;2023-03-02T07:50:18;-1.30;99.90
30381;DHT22;17169;50.966;11.038;2023-03-02T07:53:20;-1.20;99.90
30381;DHT22;17169;50.966;11.038;2023-03-02T07:56:23;-1.10;99.90
30381;DHT22;17169;50.966;11.038;2023-03-02T07:59:25;-1.00;99.90
30381;DHT22;17169;50.966;11.038;2023-03-02T08:02:30;-0.80;99.90
30381;DHT22;17169;50.966;11.038;2023-03-02T08:05:33;-0.70;99.90
30381;DHT22;17169;50.966;11.038;2023-03-02T08:08:36;-0.50;99.90
30381;DHT22;17169;50.966;11.038;2023-03-02T08:11:38;-0.40;99.90
30381;DHT22;17169;50.966;11.038;2023-03-02T08:14:42;-0.30;99.90
30381;DHT22;17169;50.966;11.038;2023-03-02T08:17:45;-0.10;99.90
30381;DHT22;17169;50.966;11.038;2023-03-02T08:20:48;0.00;99.90
30381;DHT22;17169;50.966;11.038;2023-03-02T08:23:51;0.10;99.90
30381;DHT22;17169;50.966;11.038;2023-03-02T08:26:53;0.30;99.90
30381;DHT22;17169;50.966;11.038;2023-03-02T08:29:56;0.40;99.90
30381;DHT22;17169;50.966;11.038;2023-03-02T08:32:59;0.60;99.90
30381;DHT22;17169;50.966;11.038;2023-03-02T08:36:04;0.70;99.90
30381;DHT22;17169;50.966;11.038;2023-03-02T08:39:06;0.90;99.90
30381;DHT22;17169;50.966;11.038;2023-03-02T08:42:09;1.00;99.90
30381;DHT22;17169;50.966;11.038;2023-03-02T08:45:12;1.20;99.90
30381;DHT22;17169;50.966;11.038;2023-03-02T08:48:15;1.30;99.90
30381;DHT22;17169;50.966;11.038;2023-03-02T08:51:20;1.30;99.90
30381;DHT22;17169;50.966;11.038;2023-03-02T08:54:23;1.40;99.90
30381;DHT22;17169;50.966;11.038;2023-03-02T08:57:25;1.60;99.90
30381;DHT22;17169;50.966;11.038;2023-03-02T09:00:27;1.60;99.90
30381;DHT22;17169;50.966;11.038;2023-03-02T09:03:31;1.70;99.90
30381;DHT22;17169;50.966;11.038;2023-03-02T09:06:36;1.80;99.90
30381;DHT22;17169;50.966;11.038;2023-03-02T09:09:38;1.90;99.90
30381;DHT22;17169;50.966;11.038;2023-03-02T09:12:41;2.00;99.90
30381;DHT22;17169;50.966;11.038;2023-03-02T09:15:44;2.10;99.90
30381;DHT22;17169;50.966;11.038;2023-03-02T09:18:47;2.20;99.90
30381;DHT22;17169;50.966;11.038;2023-03-02T09:21:50;2.40;99.90
30381;DHT22;17169;50.966;11.038;2023-03-02T09:24:52;2.40;99.90
30381;DHT22;17169;50.966;11.038;2023-03-02T09:27:54;2.50;99.90
30381;DHT22;17169;50.966;11.038;2023-03-02T09:30:59;2.60;99.90
30381;DHT22;17169;50.966;11.038;2023-03-02T09:34:04;2.70;99.90
30381;DHT22;17169;50.966;11.038;2023-03-02T09:37:07;2.80;99.90
30381;DHT22;17169;50.966;11.038;2023-03-02T09:43:23;3.00;99.90
30381;DHT22;17169;50.966;11.038;2023-03-02T09:46:33;3.10;99.90
30381;DHT22;17169;50.966;11.038;2023-03-02T09:49:54;3.10;99.90
30381;DHT22;17169;50.966;11.038;2023-03-02T09:53:20;3.20;99.90
30381;DHT22;17169;50.966;11.038;2023-03-02T09:56:25;3.30;99.90
30381;DHT22;17169;50.966;11.038;2023-03-02T09:59:32;3.40;99.90
30381;DHT22;17169;50.966;11.038;2023-03-02T10:02:43;3.40;99.90
30381;DHT22;17169;50.966;11.038;2023-03-02T10:05:49;3.50;99.90
30381;DHT22;17169;50.966;11.038;2023-03-02T10:08:51;3.50;99.90
30381;DHT22;17169;50.966;11.038;2023-03-02T10:12:12;3.60;99.90
30381;DHT22;17169;50.966;11.038;2023-03-02T10:15:21;3.60;99.90
30381;DHT22;17169;50.966;11.038;2023-03-02T10:18:29;3.70;99.90
30381;DHT22;17169;50.966;11.038;2023-03-02T10:21:38;3.80;99.90
30381;DHT22;17169;50.966;11.038;2023-03-02T10:24:49;3.80;99.90
30381;DHT22;17169;50.966;11.038;2023-03-02T10:27:56;3.90;99.90
30381;DHT22;17169;50.966;11.038;2023-03-02T10:31:07;4.00;99.90
30381;DHT22;17169;50.966;11.038;2023-03-02T10:34:10;4.10;99.90
30381;DHT22;17169;50.966;11.038;2023-03-02T10:37:16;4.20;99.90
30381;DHT22;17169;50.966;11.038;2023-03-02T10:40:30;4.30;99.90
30381;DHT22;17169;50.966;11.038;2023-03-02T10:43:36;4.30;99.70
30381;DHT22;17169;50.966;11.038;2023-03-02T10:46:42;4.40;99.90
30381;DHT22;17169;50.966;11.038;2023-03-02T10:49:46;4.40;99.50
30381;DHT22;17169;50.966;11.038;2023-03-02T10:52:50;4.50;99.70
30381;DHT22;17169;50.966;11.038;2023-03-02T10:55:53;4.60;99.80
30381;DHT22;17169;50.966;11.038;2023-03-02T10:58:55;4.70;99.40
30381;DHT22;17169;50.966;11.038;2023-03-02T11:02:12;4.80;99.00
30381;DHT22;17169;50.966;11.038;2023-03-02T11:05:27;4.80;98.80
30381;DHT22;17169;50.966;11.038;2023-03-02T11:08:33;4.90;98.80
30381;DHT22;17169;50.966;11.038;2023-03-02T11:11:35;5.00;98.50
30381;DHT22;17169;50.966;11.038;2023-03-02T11:14:37;5.10;98.40
30381;DHT22;17169;50.966;11.038;2023-03-02T11:17:40;5.20;98.40
30381;DHT22;17169;50.966;11.038;2023-03-02T11:20:47;5.20;98.60
30381;DHT22;17169;50.966;11.038;2023-03-02T11:23:58;5.30;98.50
30381;DHT22;17169;50.966;11.038;2023-03-02T11:27:06;5.50;97.70
30381;DHT22;17169;50.966;11.038;2023-03-02T11:30:16;5.60;97.10
30381;DHT22;17169;50.966;11.038;2023-03-02T11:33:24;5.60;97.40
30381;DHT22;17169;50.966;11.038;2023-03-02T11:36:35;5.80;97.50
30381;DHT22;17169;50.966;11.038;2023-03-02T11:39:59;5.80;96.40
30381;DHT22;17169;50.966;11.038;2023-03-02T11:43:02;5.90;96.20
30381;DHT22;17169;50.966;11.038;2023-03-02T11:46:06;5.90;96.30
30381;DHT22;17169;50.966;11.038;2023-03-02T11:49:19;5.90;96.20
30381;DHT22;17169;50.966;11.038;2023-03-02T11:52:25;6.00;96.10
30381;DHT22;17169;50.966;11.038;2023-03-02T11:55:32;6.00;96.30
30381;DHT22;17169;50.966;11.038;2023-03-02T11:58:38;6.10;96.20
30381;DHT22;17169;50.966;11.038;2023-03-02T12:01:44;6.20;95.50
30381;DHT22;17169;50.966;11.038;2023-03-02T12:04:48;6.30;94.10
30381;DHT22;17169;50.966;11.038;2023-03-02T12:08:03;6.30;93.20
30381;DHT22;17169;50.966;11.038;2023-03-02T12:11:28;6.40;93.50
30381;DHT22;17169;50.966;11.038;2023-03-02T12:14:36;6.50;93.00
30381;DHT22;17169;50.966;11.038;2023-03-02T12:17:39;6.50;92.80
30381;DHT22;17169;50.966;11.038;2023-03-02T12:20:41;6.50;92.00
30381;DHT22;17169;50.966;11.038;2023-03-02T12:23:57;6.50;91.60
30381;DHT22;17169;50.966;11.038;2023-03-02T12:27:03;6.60;91.90
30381;DHT22;17169;50.966;11.038;2023-03-02T12:30:24;6.60;91.70
30381;DHT22;17169;50.966;11.038;2023-03-02T12:33:27;6.70;91.20
30381;DHT22;17169;50.966;11.038;2023-03-02T12:36:41;6.70;91.40
30381;DHT22;17169;50.966;11.038;2023-03-02T12:40:16;6.80;91.00
30381;DHT22;17169;50.966;11.038;2023-03-02T12:43:31;6.90;90.90
30381;DHT22;17169;50.966;11.038;2023-03-02T12:46:35;6.90;91.10
30381;DHT22;17169;50.966;11.038;2023-03-02T12:49:47;7.00;91.30
30381;DHT22;17169;50.966;11.038;2023-03-02T12:52:58;7.10;90.70
30381;DHT22;17169;50.966;11.038;2023-03-02T12:56:01;7.10;90.70
30381;DHT22;17169;50.966;11.038;2023-03-02T12:59:04;7.10;90.90
30381;DHT22;17169;50.966;11.038;2023-03-02T13:02:15;7.20;90.00
30381;DHT22;17169;50.966;11.038;2023-03-02T13:05:20;7.30;88.40
30381;DHT22;17169;50.966;11.038;2023-03-02T13:08:26;7.30;88.00
30381;DHT22;17169;50.966;11.038;2023-03-02T13:11:32;7.30;88.50
30381;DHT22;17169;50.966;11.038;2023-03-02T13:14:39;7.40;88.20
30381;DHT22;17169;50.966;11.038;2023-03-02T13:17:43;7.40;88.20
30381;DHT22;17169;50.966;11.038;2023-03-02T13:20:47;7.50;88.70
30381;DHT22;17169;50.966;11.038;2023-03-02T13:23:50;7.60;88.10
30381;DHT22;17169;50.966;11.038;2023-03-02T13:26:57;7.60;89.00
30381;DHT22;17169;50.966;11.038;2023-03-02T13:30:10;7.50;90.00
30381;DHT22;17169;50.966;11.038;2023-03-02T13:33:20;7.60;90.20
30381;DHT22;17169;50.966;11.038;2023-03-02T13:36:25;7.60;90.00
30381;DHT22;17169;50.966;11.038;2023-03-02T13:39:29;7.60;90.60
30381;DHT22;17169;50.966;11.038;2023-03-02T13:42:37;7.70;91.20
30381;DHT22;17169;50.966;11.038;2023-03-02T13:45:50;7.70;91.60
30381;DHT22;17169;50.966;11.038;2023-03-02T13:48:54;7.70;91.70
30381;DHT22;17169;50.966;11.038;2023-03-02T13:52:00;7.80;92.20
30381;DHT22;17169;50.966;11.038;2023-03-02T13:55:04;7.90;92.00
30381;DHT22;17169;50.966;11.038;2023-03-02T13:58:12;7.90;92.00
30381;DHT22;17169;50.966;11.038;2023-03-02T14:01:18;7.90;92.00
30381;DHT22;17169;50.966;11.038;2023-03-02T14:04:21;7.80;92.10
30381;DHT22;17169;50.966;11.038;2023-03-02T14:07:24;7.80;92.50
30381;DHT22;17169;50.966;11.038;2023-03-02T14:10:26;7.90;92.30
30381;DHT22;17169;50.966;11.038;2023-03-02T14:13:34;7.90;92.50
30381;DHT22;17169;50.966;11.038;2023-03-02T14:16:39;8.00;93.00
30381;DHT22;17169;50.966;11.038;2023-03-02T14:19:42;8.00;92.90
30381;DHT22;17169;50.966;11.038;2023-03-02T14:22:44;7.90;92.80
30381;DHT22;17169;50.966;11.038;2023-03-02T14:25:47;7.90;92.80
30381;DHT22;17169;50.966;11.038;2023-03-02T14:28:50;8.00;92.50
30381;DHT22;17169;50.966;11.038;2023-03-02T14:31:55;8.00;93.10
30381;DHT22;17169;50.966;11.038;2023-03-02T14:34:59;8.00;93.40
30381;DHT22;17169;50.966;11.038;2023-03-02T14:38:01;8.10;93.20
30381;DHT22;17169;50.966;11.038;2023-03-02T14:41:04;8.20;93.50
30381;DHT22;17169;50.966;11.038;2023-03-02T14:44:09;8.30;93.30
30381;DHT22;17169;50.966;11.038;2023-03-02T14:47:13;8.40;93.20
30381;DHT22;17169;50.966;11.038;2023-03-02T14:50:16;8.30;93.50
30381;DHT22;17169;50.966;11.038;2023-03-02T14:53:24;8.20;93.70
30381;DHT22;17169;50.966;11.038;2023-03-02T14:56:28;8.20;94.00
30381;DHT22;17169;50.966;11.038;2023-03-02T14:59:31;8.10;94.20
30381;DHT22;17169;50.966;11.038;2023-03-02T15:02:34;8.10;94.20
30381;DHT22;17169;50.966;11.038;2023-03-02T15:05:37;8.00;94.30
30381;DHT22;17169;50.966;11.038;2023-03-02T15:08:39;8.00;94.40
30381;DHT22;17169;50.966;11.038;2023-03-02T15:11:42;8.00;94.60
30381;DHT22;17169;50.966;11.038;2023-03-02T15:14:44;7.90;94.70
30381;DHT22;17169;50.966;11.038;2023-03-02T15:17:48;7.90;94.60
30381;DHT22;17169;50.966;11.038;2023-03-02T15:20:50;7.90;94.70
30381;DHT22;17169;50.966;11.038;2023-03-02T15:23:53;7.90;94.60
30381;DHT22;17169;50.966;11.038;2023-03-02T15:26:55;7.80;94.60
30381;DHT22;17169;50.966;11.038;2023-03-02T15:29:58;7.80;94.70
30381;DHT22;17169;50.966;11.038;2023-03-02T15:33:01;7.70;94.50
30381;DHT22;17169;50.966;11.038;2023-03-02T15:36:05;7.70;94.60
30381;DHT22;17169;50.966;11.038;2023-03-02T15:39:11;7.70;94.80
30381;DHT22;17169;50.966;11.038;2023-03-02T15:42:14;7.60;95.90
30381;DHT22;17169;50.966;11.038;2023-03-02T15:45:16;7.60;96.70
30381;DHT22;17169;50.966;11.038;2023-03-02T15:48:20;7.60;97.20
30381;DHT22;17169;50.966;11.038;2023-03-02T15:51:22;7.50;97.50
30381;DHT22;17169;50.966;11.038;2023-03-02T15:54:25;7.50;97.80
30381;DHT22;17169;50.966;11.038;2023-03-02T15:57:28;7.50;97.90
30381;DHT22;17169;50.966;11.038;2023-03-02T16:00:31;7.50;98.30
30381;DHT22;17169;50.966;11.038;2023-03-02T16:03:38;7.40;98.50
30381;DHT22;17169;50.966;11.038;2023-03-02T16:06:40;7.30;98.80
30381;DHT22;17169;50.966;11.038;2023-03-02T16:09:43;7.30;99.30
30381;DHT22;17169;50.966;11.038;2023-03-02T16:12:46;7.20;99.40
30381;DHT22;17169;50.966;11.038;2023-03-02T16:15:48;7.20;99.60
30381;DHT22;17169;50.966;11.038;2023-03-02T16:18:53;7.20;99.60
30381;DHT22;17169;50.966;11.038;2023-03-02T16:21:56;7.10;99.70
30381;DHT22;17169;50.966;11.038;2023-03-02T16:24:58;7.10;99.80
30381;DHT22;17169;50.966;11.038;2023-03-02T16:28:01;7.10;99.90
30381;DHT22;17169;50.966;11.038;2023-03-02T16:31:05;7.00;99.90
30381;DHT22;17169;50.966;11.038;2023-03-02T16:34:09;6.90;99.90
30381;DHT22;17169;50.966;11.038;2023-03-02T16:37:11;6.90;99.90
30381;DHT22;17169;50.966;11.038;2023-03-02T16:40:14;6.80;99.90
30381;DHT22;17169;50.966;11.038;2023-03-02T16:43:16;6.80;99.90
30381;DHT22;17169;50.966;11.038;2023-03-02T16:46:20;6.70;99.90
30381;DHT22;17169;50.966;11.038;2023-03-02T16:49:24;6.60;99.90
30381;DHT22;17169;50.966;11.038;2023-03-02T16:52:26;6.50;99.90
30381;DHT22;17169;50.966;11.038;2023-03-02T16:55:29;6.50;99.90
30381;DHT22;17169;50.966;11.038;2023-03-02T16:58:31;6.40;99.90
30381;DHT22;17169;50.966;11.038;2023-03-02T17:01:34;6.30;99.90
30381;DHT22;17169;50.966;11.038;2023-03-02T17:04:38;6.20;99.90
30381;DHT22;17169;50.966;11.038;2023-03-02T17:07:40;6.10;99.90
30381;DHT22;17169;50.966;11.038;2023-03-02T17:10:43;6.00;99.90
30381;DHT22;17169;50.966;11.038;2023-03-02T17:13:46;5.80;99.90
30381;DHT22;17169;50.966;11.038;2023-03-02T17:16:48;5.70;99.90
30381;DHT22;17169;50.966;11.038;2023-03-02T17:19:52;5.60;99.90
30381;DHT22;17169;50.966;11.038;2023-03-02T17:22:54;5.50;99.90
30381;DHT22;17169;50.966;11.038;2023-03-02T17:25:57;5.40;99.90
30381;DHT22;17169;50.966;11.038;2023-03-02T17:29:00;5.30;99.90
30381;DHT22;17169;50.966;11.038;2023-03-02T17:32:02;5.20;99.90
30381;DHT22;17169;50.966;11.038;2023-03-02T17:35:08;5.20;99.90
30381;DHT22;17169;50.966;11.038;2023-03-02T17:38:11;5.10;99.90
30381;DHT22;17169;50.966;11.038;2023-03-02T17:41:14;5.00;99.90
30381;DHT22;17169;50.966;11.038;2023-03-02T17:44:16;4.90;99.90
30381;DHT22;17169;50.966;11.038;2023-03-02T17:47:19;4.90;99.90
30381;DHT22;17169;50.966;11.038;2023-03-02T17:50:24;4.80;99.90
30381;DHT22;17169;50.966;11.038;2023-03-02T17:53:26;4.80;99.90
30381;DHT22;17169;50.966;11.038;2023-03-02T17:56:29;4.70;99.90
30381;DHT22;17169;50.966;11.038;2023-03-02T17:59:31;4.70;99.90
30381;DHT22;17169;50.966;11.038;2023-03-02T18:02:33;4.60;99.90
30381;DHT22;17169;50.966;11.038;2023-03-02T18:05:37;4.60;99.90
30381;DHT22;17169;50.966;11.038;2023-03-02T18:08:40;4.50;99.90
30381;DHT22;17169;50.966;11.038;2023-03-02T18:11:42;4.40;99.90
30381;DHT22;17169;50.966;11.038;2023-03-02T18:14:45;4.30;99.90
30381;DHT22;17169;50.966;11.038;2023-03-02T18:17:47;4.30;99.90
30381;DHT22;17169;50.966;11.038;2023-03-02T18:20:52;4.30;99.90
30381;DHT22;17169;50.966;11.038;2023-03-02T18:23:55;4.20;99.90
30381;DHT22;17169;50.966;11.038;2023-03-02T18:26:58;4.10;99.90
30381;DHT22;17169;50.966;11.038;2023-03-02T18:30:00;4.10;99.90
30381;DHT22;17169;50.966;11.038;2023-03-02T18:33:03;4.00;99.90
30381;DHT22;17169;50.966;11.038;2023-03-02T18:36:07;4.00;99.90
30381;DHT22;17169;50.966;11.038;2023-03-02T18:39:10;3.90;99.90
30381;DHT22;17169;50.966;11.038;2023-03-02T18:42:12;3.90;99.90
30381;DHT22;17169;50.966;11.038;2023-03-02T18:45:20;3.80;99.90
30381;DHT22;17169;50.966;11.038;2023-03-02T18:48:23;3.80;99.90
30381;DHT22;17169;50.966;11.038;2023-03-02T18:51:27;3.70;99.90
30381;DHT22;17169;50.966;11.038;2023-03-02T18:54:29;3.70;99.90
30381;DHT22;17169;50.966;11.038;2023-03-02T18:57:32;3.70;99.90
30381;DHT22;17169;50.966;11.038;2023-03-02T19:00:34;3.60;99.90
30381;DHT22;17169;50.966;11.038;2023-03-02T19:03:37;3.60;99.90
30381;DHT22;17169;50.966;11.038;2023-03-02T19:06:43;3.60;99.90
30381;DHT22;17169;50.966;11.038;2023-03-02T19:09:45;3.60;99.90
30381;DHT22;17169;50.966;11.038;2023-03-02T19:12:47;3.50;99.90
30381;DHT22;17169;50.966;11.038;2023-03-02T19:15:52;3.40;99.90
30381;DHT22;17169;50.966;11.038;2023-03-02T19:18:54;3.40;99.90
30381;DHT22;17169;50.966;11.038;2023-03-02T19:21:58;3.40;99.90